Webcam Richtung Westen

Webcam27

Webcam Richtung Norden

Webcam36

Webcam Richtung Osten

Webcam09

Wetter(Würzburg):
012130Z AUTO 09007G10KT 70KM ////// 18/07 Q1020
		
Mon 1.06.2020, 21:30 UTC

Sichtweite bis zu 70 km
Wind aus 90° mit 07kt, in Böen bis zu 10kt

Temperatur: 18 °C
Taupunkt: 7 °C
QNH: 1020 hPa
                         Heute        Morgen
                         01.06        02.06
--------------------------------------------
Beginn der Dämmerung     02:34        02:34
Sonnenaufgang            03:17        03:16
Sonnenuntergang          19:19        19:20
Ende der Dämmerung       20:02        20:03

Alle Zeiten in UTC